createdAt,value
2016-12-15T14:01:24.412Z,30784
2016-12-15T14:01:41.147Z,29792
2016-12-15T14:01:57.894Z,30976
2016-12-15T14:02:14.600Z,34016
2016-12-15T14:02:31.331Z,36128
2016-12-15T14:02:48.070Z,36896
2016-12-15T14:03:04.816Z,37440
2016-12-15T14:03:21.833Z,38176
2016-12-15T14:03:39.124Z,37600
2016-12-15T14:03:55.827Z,35616
2016-12-15T14:04:27.128Z,34176
2016-12-15T14:04:43.945Z,34624
2016-12-15T14:05:00.744Z,35168
2016-12-15T14:05:17.873Z,35008
2016-12-15T14:05:35.194Z,34112
2016-12-15T14:06:07.284Z,32288
2016-12-15T14:06:24.900Z,31872
2016-12-15T14:06:41.601Z,32640
2016-12-15T14:06:58.363Z,33984
2016-12-15T14:07:15.136Z,34720
2016-12-15T14:07:31.879Z,35072
2016-12-15T14:07:48.605Z,34336
2016-12-15T14:08:05.329Z,32672
2016-12-15T14:08:22.052Z,30496
2016-12-15T14:08:38.810Z,28512
2016-12-15T14:08:55.561Z,27552
2016-12-15T14:09:12.431Z,28640
2016-12-15T14:09:29.228Z,31424
2016-12-15T14:09:45.986Z,33792
2016-12-15T14:10:02.759Z,35072
2016-12-15T14:10:20.080Z,35424
2016-12-15T14:10:36.799Z,35456
2016-12-15T14:10:53.569Z,35232
2016-12-15T14:11:10.415Z,34432
2016-12-15T14:11:27.187Z,33120
2016-12-15T14:11:43.996Z,31712
2016-12-15T14:12:00.792Z,30656
2016-12-15T14:12:17.632Z,29824
2016-12-15T14:12:34.457Z,28960
2016-12-15T14:12:51.216Z,28384
2016-12-15T14:13:07.992Z,28544
2016-12-15T14:13:24.744Z,29184
2016-12-15T14:13:41.538Z,28704
2016-12-15T14:13:58.286Z,26656
2016-12-15T14:14:15.047Z,24704
2016-12-15T14:14:31.804Z,23328
2016-12-15T14:14:48.534Z,22304
2016-12-15T14:15:05.301Z,21472
2016-12-15T14:15:22.044Z,20544
2016-12-15T14:15:38.806Z,20032
2016-12-15T14:15:55.524Z,19968
2016-12-15T14:16:12.260Z,19872
2016-12-15T14:16:29.079Z,19520
2016-12-15T14:16:46.322Z,18784
2016-12-15T14:17:03.579Z,18112
2016-12-15T14:17:20.298Z,17632
2016-12-15T14:17:37.004Z,17200
2016-12-15T14:17:53.757Z,16544
2016-12-15T14:18:10.454Z,15632
2016-12-15T14:18:27.198Z,14940
2016-12-15T14:18:43.949Z,14640
2016-12-15T14:19:00.684Z,14520
2016-12-15T14:19:17.419Z,14432
2016-12-15T14:19:34.150Z,14232
2016-12-15T14:19:50.888Z,14092
2016-12-15T14:20:07.603Z,13948
2016-12-15T14:20:24.849Z,13816
2016-12-15T14:20:41.588Z,13880
2016-12-15T14:20:58.305Z,14060
2016-12-15T14:21:15.059Z,14080
2016-12-15T14:21:32.317Z,13952
2016-12-15T14:21:49.050Z,13616
2016-12-15T14:22:06.269Z,13060
2016-12-15T14:22:23.053Z,12668
2016-12-15T14:22:39.773Z,12792
2016-12-15T14:22:56.522Z,13200
2016-12-15T14:23:13.244Z,13348
2016-12-15T14:23:29.973Z,13140
2016-12-15T14:23:46.714Z,12640
2016-12-15T14:24:03.440Z,12204
2016-12-15T14:24:20.145Z,11916
2016-12-15T14:24:36.888Z,11508
2016-12-15T14:24:53.625Z,11196
2016-12-15T14:25:10.851Z,11216
2016-12-15T14:25:27.591Z,11300
2016-12-15T14:25:44.315Z,11288
2016-12-15T14:26:01.052Z,11388
2016-12-15T14:26:17.811Z,11968
2016-12-15T14:26:34.565Z,12644
2016-12-15T14:26:51.828Z,12552
2016-12-15T14:27:08.572Z,12008
2016-12-15T14:27:25.300Z,11388
2016-12-15T14:27:42.036Z,10812
2016-12-15T14:27:58.793Z,10464
2016-12-15T14:28:15.523Z,10432
2016-12-15T14:28:32.276Z,10552
2016-12-15T14:28:49.054Z,10856
2016-12-15T14:29:05.778Z,11212
2016-12-15T14:29:22.515Z,11416
2016-12-15T14:29:39.254Z,11348
2016-12-15T14:29:55.970Z,11108
2016-12-15T14:30:13.237Z,11072
2016-12-15T14:30:29.967Z,11104
2016-12-15T14:30:46.680Z,10968
2016-12-15T14:31:03.403Z,11148
2016-12-15T14:31:20.137Z,11980
2016-12-15T14:31:37.543Z,12156
2016-12-15T14:31:55.441Z,11736
2016-12-15T14:32:12.440Z,11360
2016-12-15T14:32:29.209Z,10940
2016-12-15T14:32:45.924Z,10860
2016-12-15T14:33:02.678Z,11516
2016-12-15T14:33:19.419Z,12272
2016-12-15T14:33:36.146Z,12496
2016-12-15T14:33:52.890Z,12744
2016-12-15T14:34:09.618Z,13204
2016-12-15T14:34:26.337Z,13972
2016-12-15T14:34:43.051Z,14644
2016-12-15T14:34:59.791Z,15272
2016-12-15T14:35:16.522Z,16652
2016-12-15T14:35:33.282Z,18336
2016-12-15T14:35:49.999Z,19136
2016-12-15T14:36:06.725Z,20160
2016-12-15T14:36:23.994Z,22272
2016-12-15T14:36:40.722Z,24032
2016-12-15T14:36:57.474Z,25056
2016-12-15T14:37:14.763Z,25984
2016-12-15T14:37:31.547Z,26880
2016-12-15T14:37:48.304Z,27520
2016-12-15T14:38:05.587Z,28224
2016-12-15T14:38:22.326Z,29664
2016-12-15T14:38:39.069Z,32448
2016-12-15T14:38:56.316Z,37760
2016-12-15T14:39:13.021Z,44160
2016-12-15T14:39:29.731Z,49632
2016-12-15T14:39:46.449Z,54016
2016-12-15T14:40:03.185Z,56192
2016-12-15T14:40:19.943Z,57728
2016-12-15T14:40:36.657Z,58688
2016-12-15T14:40:53.374Z,59648
2016-12-15T14:41:10.098Z,60576
2016-12-15T14:41:26.835Z,62272
2016-12-15T14:41:43.561Z,63872
2016-12-15T14:42:00.297Z,64096
2016-12-15T14:42:17.024Z,63680
2016-12-15T14:42:33.771Z,63168
2016-12-15T14:42:50.478Z,61664
2016-12-15T14:43:07.695Z,57664
2016-12-15T14:43:24.417Z,54464
2016-12-15T14:43:55.658Z,53536
2016-12-15T14:44:12.400Z,58048
2016-12-15T14:44:29.131Z,65088
2016-12-15T14:44:45.873Z,71392
2016-12-15T14:45:02.592Z,74624
2016-12-15T14:45:19.318Z,73184
2016-12-15T14:45:36.044Z,65760
2016-12-15T14:45:52.779Z,64256
2016-12-15T14:46:10.003Z,64352
2016-12-15T14:46:26.844Z,52736
2016-12-15T14:46:43.601Z,50496
2016-12-15T14:47:00.320Z,51808
2016-12-15T14:47:17.277Z,53216
2016-12-15T14:47:34.001Z,55552
2016-12-15T14:47:50.725Z,60320
2016-12-15T14:48:07.463Z,70176
2016-12-15T14:48:24.236Z,91040
2016-12-15T14:48:40.960Z,89600
2016-12-15T14:48:57.758Z,59040
2016-12-15T14:49:14.524Z,54112
2016-12-15T14:49:31.239Z,54400
2016-12-15T14:49:47.977Z,53984
2016-12-15T14:50:04.733Z,58144
2016-12-15T14:50:21.992Z,60800
2016-12-15T14:50:38.755Z,57120
2016-12-15T14:50:55.481Z,54784
2016-12-15T14:51:12.214Z,54912
2016-12-15T14:51:29.060Z,60672
2016-12-15T14:51:45.913Z,65440
2016-12-15T14:52:02.732Z,62496
2016-12-15T14:52:19.560Z,62784
2016-12-15T14:52:36.326Z,59776
2016-12-15T14:52:53.057Z,65120
2016-12-15T14:53:09.803Z,75904
2016-12-15T14:53:26.551Z,84480
2016-12-15T14:53:43.307Z,69920
2016-12-15T14:54:00.068Z,60352
2016-12-15T14:54:31.828Z,73760
2016-12-15T14:54:49.089Z,67584
2016-12-15T14:55:05.840Z,71904
2016-12-15T14:55:22.587Z,86496
2016-12-15T14:55:39.323Z,104608
2016-12-15T14:55:56.069Z,74208
2016-12-15T14:56:12.805Z,87840
2016-12-15T14:56:29.611Z,109664
2016-12-15T14:56:46.422Z,66752
2016-12-15T14:57:03.217Z,62112
2016-12-15T14:57:19.981Z,61280
2016-12-15T14:57:36.732Z,57696
2016-12-15T14:57:53.440Z,59872
2016-12-15T14:58:10.290Z,110304
2016-12-15T14:58:27.547Z,68960
2016-12-15T14:58:44.259Z,60960
2016-12-15T14:59:01.000Z,59136
2016-12-15T14:59:17.735Z,63552
2016-12-15T14:59:34.960Z,87680
2016-12-15T14:59:52.148Z,128416
2016-12-15T15:00:08.854Z,102848
2016-12-15T15:00:25.640Z,74528
2016-12-15T15:00:42.382Z,72096
2016-12-15T15:00:59.196Z,59872
2016-12-15T15:01:15.955Z,55808
2016-12-15T15:01:32.718Z,56096
2016-12-15T15:01:49.470Z,69696
2016-12-15T15:02:06.200Z,55264
2016-12-15T15:02:23.009Z,54720
2016-12-15T15:02:39.787Z,57376
2016-12-15T15:02:56.522Z,56288
2016-12-15T15:03:13.282Z,52416
2016-12-15T15:03:30.024Z,53056
2016-12-15T15:03:46.776Z,56544
2016-12-15T15:04:03.525Z,94688
2016-12-15T15:04:20.259Z,73696
2016-12-15T15:04:36.975Z,65024
2016-12-15T15:04:53.696Z,87200
2016-12-15T15:05:10.454Z,76544
2016-12-15T15:05:27.176Z,75104
2016-12-15T15:05:43.892Z,56064
2016-12-15T15:06:00.647Z,52352
2016-12-15T15:06:17.430Z,50720
2016-12-15T15:06:34.814Z,47520
2016-12-15T15:06:51.543Z,45632
2016-12-15T15:07:08.264Z,43808
2016-12-15T15:07:24.991Z,42848
2016-12-15T15:07:41.710Z,42752
2016-12-15T15:07:58.447Z,41984
2016-12-15T15:08:15.169Z,41152
2016-12-15T15:08:31.907Z,39552
2016-12-15T15:08:48.879Z,37088
2016-12-15T15:09:05.617Z,34560
2016-12-15T15:09:22.336Z,33472
2016-12-15T15:09:39.092Z,34496
2016-12-15T15:09:55.841Z,37472
2016-12-15T15:10:12.580Z,39712
2016-12-15T15:10:29.390Z,39104
2016-12-15T15:10:46.136Z,36576
2016-12-15T15:11:02.885Z,35296
2016-12-15T15:11:19.603Z,36448
2016-12-15T15:11:36.367Z,39104
2016-12-15T15:11:53.107Z,42336
2016-12-15T15:12:09.869Z,44192
2016-12-15T15:12:26.588Z,41472
2016-12-15T15:12:43.318Z,38816
2016-12-15T15:13:00.048Z,38016
2016-12-15T15:13:16.830Z,37056
2016-12-15T15:13:33.579Z,34080
2016-12-15T15:13:50.367Z,30144
2016-12-15T15:14:07.065Z,28608
2016-12-15T15:14:23.840Z,28160
2016-12-15T15:14:40.552Z,27840
2016-12-15T15:14:57.320Z,26592
2016-12-15T15:15:14.040Z,24000
2016-12-15T15:15:30.888Z,21376
2016-12-15T15:15:47.671Z,19392
2016-12-15T15:16:04.472Z,18016
2016-12-15T15:16:21.193Z,17152
2016-12-15T15:16:37.989Z,16616
2016-12-15T15:16:54.726Z,16696
2016-12-15T15:17:11.522Z,17440
2016-12-15T15:17:28.261Z,18272
2016-12-15T15:17:45.516Z,19328
2016-12-15T15:18:02.570Z,20352
2016-12-15T15:18:19.278Z,21120
2016-12-15T15:18:36.027Z,21248
2016-12-15T15:18:52.743Z,20416
2016-12-15T15:19:09.671Z,19008
2016-12-15T15:19:26.377Z,17472
2016-12-15T15:19:43.176Z,15968
2016-12-15T15:19:59.998Z,15016
2016-12-15T15:20:16.988Z,14472
2016-12-15T15:20:33.767Z,14296
2016-12-15T15:20:50.529Z,14428
2016-12-15T15:21:07.239Z,14740
2016-12-15T15:21:23.994Z,15164
2016-12-15T15:21:40.857Z,15684
2016-12-15T15:21:57.638Z,16124
2016-12-15T15:22:14.356Z,16488
2016-12-15T15:22:31.091Z,16708
2016-12-15T15:22:47.836Z,16560
2016-12-15T15:23:05.080Z,16232
2016-12-15T15:23:21.983Z,15728
2016-12-15T15:23:39.191Z,15080
2016-12-15T15:23:55.940Z,14620
2016-12-15T15:24:12.780Z,14432
2016-12-15T15:24:29.546Z,14348
2016-12-15T15:24:46.292Z,14148
2016-12-15T15:25:03.028Z,14064
2016-12-15T15:25:19.764Z,14232
2016-12-15T15:25:36.540Z,14740
2016-12-15T15:25:53.264Z,15504
2016-12-15T15:26:09.993Z,16468
2016-12-15T15:26:26.744Z,17536
2016-12-15T15:26:44.011Z,18592
2016-12-15T15:27:00.738Z,19424
2016-12-15T15:27:17.452Z,19680
2016-12-15T15:27:34.196Z,19232
2016-12-15T15:27:50.992Z,18336
2016-12-15T15:28:08.237Z,17312
2016-12-15T15:28:25.013Z,16256
2016-12-15T15:28:41.820Z,15408
2016-12-15T15:28:58.545Z,14744
2016-12-15T15:29:15.376Z,14296
2016-12-15T15:29:32.151Z,14064
2016-12-15T15:29:48.943Z,13900
2016-12-15T15:30:05.704Z,13824
2016-12-15T15:30:22.608Z,13764
2016-12-15T15:30:39.367Z,13720
2016-12-15T15:30:56.095Z,13676
2016-12-15T15:31:12.864Z,13688
2016-12-15T15:31:29.642Z,13912
2016-12-15T15:31:46.432Z,14116
2016-12-15T15:32:03.213Z,14480
2016-12-15T15:32:20.011Z,15128
2016-12-15T15:32:36.731Z,15736
2016-12-15T15:32:53.481Z,15844
2016-12-15T15:33:10.230Z,15388
2016-12-15T15:33:26.959Z,14960
2016-12-15T15:33:43.684Z,14796
2016-12-15T15:34:00.499Z,14716
2016-12-15T15:34:17.229Z,14672
2016-12-15T15:34:33.981Z,14660
2016-12-15T15:34:50.849Z,14628
2016-12-15T15:35:07.691Z,14684
2016-12-15T15:35:24.688Z,15232
2016-12-15T15:35:41.977Z,16164
2016-12-15T15:35:58.732Z,17472
2016-12-15T15:36:30.016Z,20320
2016-12-15T15:36:46.876Z,21312
2016-12-15T15:37:03.654Z,21312
2016-12-15T15:37:20.556Z,20640
2016-12-15T15:37:37.400Z,20032
2016-12-15T15:37:54.133Z,19360
2016-12-15T15:38:10.856Z,18560
2016-12-15T15:38:27.577Z,18560
2016-12-15T15:38:44.366Z,19520
2016-12-15T15:39:01.144Z,20256
2016-12-15T15:39:17.892Z,20192
2016-12-15T15:39:34.738Z,20256
2016-12-15T15:39:51.621Z,21472
2016-12-15T15:40:08.374Z,24992
2016-12-15T15:40:25.159Z,28928
2016-12-15T15:40:41.861Z,29440
2016-12-15T15:40:59.199Z,27008
2016-12-15T15:41:15.883Z,24864
2016-12-15T15:41:32.637Z,24768
2016-12-15T15:41:49.402Z,26720
2016-12-15T15:42:06.179Z,29120
2016-12-15T15:42:22.952Z,30624
2016-12-15T15:42:39.679Z,32256
2016-12-15T15:42:56.507Z,34464
2016-12-15T15:43:13.256Z,36992
2016-12-15T15:43:30.086Z,41088
2016-12-15T15:43:46.819Z,43616
2016-12-15T15:44:03.549Z,41184
2016-12-15T15:44:20.388Z,37376
2016-12-15T15:44:37.110Z,34880
2016-12-15T15:44:53.851Z,33344
2016-12-15T15:45:10.631Z,31296
2016-12-15T15:45:41.987Z,28704
2016-12-15T15:45:58.949Z,29152
2016-12-15T15:46:16.202Z,31584
2016-12-15T15:46:32.942Z,35872
2016-12-15T15:46:50.279Z,43552
2016-12-15T15:47:07.027Z,54336
2016-12-15T15:47:23.756Z,71136
2016-12-15T15:47:40.576Z,86208
2016-12-15T15:47:57.384Z,104800
2016-12-15T15:48:14.200Z,94080
2016-12-15T15:48:30.932Z,68256
2016-12-15T15:48:47.758Z,60416
2016-12-15T15:49:04.604Z,55200
2016-12-15T15:49:21.370Z,51904
2016-12-15T15:49:38.127Z,48224
2016-12-15T15:49:54.874Z,49984
2016-12-15T15:50:11.599Z,72160
2016-12-15T15:50:28.326Z,68672
2016-12-15T15:50:45.136Z,86272
2016-12-15T15:51:01.957Z,148128
2016-12-15T15:51:18.665Z,135488
2016-12-15T15:51:35.411Z,86528
2016-12-15T15:51:52.507Z,93280
2016-12-15T15:52:09.225Z,93792
2016-12-15T15:52:25.964Z,82112
2016-12-15T15:52:42.741Z,78464
2016-12-15T15:52:59.540Z,70784
2016-12-15T15:53:16.269Z,78784
2016-12-15T15:53:33.036Z,100864
2016-12-15T15:54:04.881Z,75552
2016-12-15T15:54:21.629Z,63168
2016-12-15T15:54:38.370Z,53536
2016-12-15T15:54:55.119Z,50016
2016-12-15T15:55:43.826Z,34816
2016-12-15T15:56:00.734Z,32672
2016-12-15T15:56:18.176Z,30912
2016-12-15T15:56:34.997Z,29472
2016-12-15T15:56:52.233Z,28800
2016-12-15T15:57:09.019Z,29056
2016-12-15T15:57:25.784Z,30304
2016-12-15T15:57:42.498Z,31520
2016-12-15T15:57:59.250Z,31552
2016-12-15T15:58:16.076Z,30240
2016-12-15T15:58:32.840Z,28576
2016-12-15T15:58:49.600Z,27232
2016-12-15T15:59:06.386Z,25792
2016-12-15T15:59:23.104Z,24192
2016-12-15T15:59:40.344Z,22656
2016-12-15T15:59:57.106Z,21792
2016-12-15T16:00:14.397Z,21376
2016-12-15T16:00:31.144Z,21472
2016-12-15T16:00:47.879Z,22016
2016-12-15T16:01:05.141Z,22656
2016-12-15T16:01:21.880Z,22688
2016-12-15T16:01:38.632Z,21504
2016-12-15T16:01:55.365Z,20096
2016-12-15T16:02:12.167Z,18944
2016-12-15T16:02:28.950Z,18304
2016-12-15T16:02:45.715Z,18176
2016-12-15T16:03:02.445Z,18752
2016-12-15T16:03:19.195Z,20288
2016-12-15T16:03:35.908Z,22816
2016-12-15T16:03:52.641Z,25728
2016-12-15T16:04:09.945Z,27968
2016-12-15T16:04:26.696Z,28800
2016-12-15T16:04:43.517Z,28448
2016-12-15T16:05:00.238Z,27616
2016-12-15T16:05:16.977Z,27040
2016-12-15T16:05:33.711Z,26976
2016-12-15T16:05:50.432Z,26528
2016-12-15T16:06:21.664Z,24832
2016-12-15T16:06:39.047Z,24576
2016-12-15T16:06:56.053Z,24512
2016-12-15T16:07:12.952Z,24352
2016-12-15T16:07:30.288Z,24032
2016-12-15T16:07:48.458Z,23968
2016-12-15T16:08:20.178Z,23328
2016-12-15T16:08:37.340Z,23456
2016-12-15T16:08:54.853Z,24224
2016-12-15T16:09:12.345Z,24800
2016-12-15T16:09:29.344Z,24512
2016-12-15T16:09:46.148Z,23456
2016-12-15T16:10:02.867Z,22336
2016-12-15T16:10:19.602Z,21696
2016-12-15T16:10:51.452Z,21632
2016-12-15T16:11:08.284Z,22464
2016-12-15T16:11:25.098Z,24192
2016-12-15T16:11:41.868Z,26400
2016-12-15T16:11:58.607Z,27936
2016-12-15T16:12:15.319Z,26976
2016-12-15T16:12:32.541Z,24224
2016-12-15T16:13:03.761Z,20896
2016-12-15T16:13:35.061Z,21056
2016-12-15T16:13:52.292Z,22400
2016-12-15T16:14:09.118Z,24032
2016-12-15T16:14:25.833Z,25344
2016-12-15T16:14:42.814Z,26208
2016-12-15T16:14:59.571Z,26272
2016-12-15T16:15:16.300Z,25568
2016-12-15T16:15:33.012Z,24544
2016-12-15T16:15:49.811Z,23872
2016-12-15T16:16:06.569Z,23776
2016-12-15T16:16:23.312Z,24448
2016-12-15T16:17:11.821Z,24448
2016-12-15T16:17:43.308Z,23456
2016-12-15T16:18:00.122Z,24320
2016-12-15T16:18:17.164Z,25952
2016-12-15T16:18:34.250Z,26784
2016-12-15T16:18:51.000Z,25792
2016-12-15T16:19:07.774Z,24416
2016-12-15T16:19:24.564Z,23744
2016-12-15T16:19:41.306Z,24160
2016-12-15T16:19:58.078Z,25280
2016-12-15T16:20:14.785Z,26528
2016-12-15T16:20:31.497Z,27296
2016-12-15T16:20:48.227Z,27008
2016-12-15T16:21:05.484Z,25920
2016-12-15T16:21:22.348Z,24704
2016-12-15T16:21:39.100Z,23392
2016-12-15T16:21:55.834Z,22432
2016-12-15T16:22:12.561Z,21984
2016-12-15T16:22:29.795Z,21792
2016-12-15T16:22:46.747Z,21728
2016-12-15T16:23:03.512Z,21824
2016-12-15T16:23:20.311Z,22176
2016-12-15T16:23:38.082Z,22432
2016-12-15T16:23:54.850Z,22464
2016-12-15T16:24:11.554Z,22688
2016-12-15T16:24:28.622Z,23360
2016-12-15T16:24:45.382Z,24224
2016-12-15T16:25:02.091Z,25472
2016-12-15T16:25:19.511Z,26912
2016-12-15T16:25:36.303Z,27776
2016-12-15T16:25:53.020Z,28192
2016-12-15T16:26:09.831Z,28320
2016-12-15T16:26:26.609Z,28928
2016-12-15T16:26:43.367Z,31168
2016-12-15T16:27:00.085Z,35360
2016-12-15T16:27:16.811Z,39840
2016-12-15T16:27:33.517Z,42560
2016-12-15T16:27:50.295Z,41984
2016-12-15T16:28:21.838Z,40864
2016-12-15T16:28:38.893Z,42336
2016-12-15T16:28:55.738Z,45632
2016-12-15T16:29:12.565Z,49984
2016-12-15T16:29:29.403Z,56128
2016-12-15T16:29:46.149Z,52096
2016-12-15T16:30:02.883Z,47072
2016-12-15T16:30:19.610Z,46944
2016-12-15T16:30:36.375Z,48320
2016-12-15T16:30:53.149Z,48992
2016-12-15T16:31:09.867Z,48384
2016-12-15T16:31:26.599Z,42432
2016-12-15T16:31:43.314Z,39648
2016-12-15T16:32:00.071Z,38240
2016-12-15T16:32:16.897Z,38112
2016-12-15T16:32:33.672Z,40768
2016-12-15T16:32:50.392Z,44864
2016-12-15T16:33:07.155Z,47456
2016-12-15T16:33:24.376Z,45504
2016-12-15T16:33:41.072Z,42240
2016-12-15T16:33:57.832Z,40736
2016-12-15T16:34:14.626Z,41824
2016-12-15T16:34:31.340Z,45760
2016-12-15T16:34:48.112Z,51008
2016-12-15T16:35:04.885Z,55680
2016-12-15T16:35:21.667Z,60096
2016-12-15T16:35:38.415Z,58176
2016-12-15T16:35:55.198Z,56448
2016-12-15T16:36:12.441Z,56384
2016-12-15T16:36:29.180Z,57408
2016-12-15T16:36:45.923Z,57216
2016-12-15T16:37:02.637Z,59328
2016-12-15T16:37:19.361Z,60736
2016-12-15T16:37:36.105Z,60352
2016-12-15T16:37:52.947Z,59424
2016-12-15T16:38:09.712Z,57024
2016-12-15T16:38:26.454Z,54208
2016-12-15T16:38:43.185Z,52192
2016-12-15T16:38:59.959Z,51712
2016-12-15T16:39:16.727Z,51936
2016-12-15T16:39:33.453Z,50144
2016-12-15T16:39:50.241Z,47840
2016-12-15T16:40:21.473Z,40672
2016-12-15T16:40:38.349Z,38592
2016-12-15T16:40:55.096Z,36928
2016-12-15T16:41:12.425Z,34560
2016-12-15T16:41:29.177Z,31744
2016-12-15T16:41:46.494Z,29440
2016-12-15T16:42:03.223Z,28000
2016-12-15T16:42:19.931Z,27232
2016-12-15T16:42:36.668Z,27328
2016-12-15T16:42:53.585Z,28256
2016-12-15T16:43:24.928Z,28384
2016-12-15T16:43:41.709Z,26720
2016-12-15T16:43:58.469Z,25152
2016-12-15T16:44:15.242Z,24960
2016-12-15T16:44:32.007Z,25632
2016-12-15T16:44:48.739Z,26208
2016-12-15T16:45:05.497Z,25760
2016-12-15T16:45:22.223Z,24864
2016-12-15T16:45:39.223Z,24672
2016-12-15T16:45:55.999Z,25376
2016-12-15T16:46:12.761Z,26464
2016-12-15T16:46:29.710Z,27424
2016-12-15T16:46:46.455Z,27584
2016-12-15T16:47:03.187Z,27296
2016-12-15T16:47:20.493Z,26944
2016-12-15T16:47:37.222Z,26592
2016-12-15T16:47:54.066Z,26368
2016-12-15T16:48:10.806Z,26720
2016-12-15T16:48:27.558Z,27136
2016-12-15T16:48:44.553Z,26880
2016-12-15T16:49:01.315Z,26304
2016-12-15T16:49:18.102Z,25888
2016-12-15T16:49:34.855Z,25760
2016-12-15T16:49:51.621Z,25600
2016-12-15T16:50:09.221Z,25280
2016-12-15T16:50:40.463Z,23488
2016-12-15T16:50:57.179Z,22144
2016-12-15T16:51:13.983Z,20928
2016-12-15T16:51:30.711Z,19840
2016-12-15T16:51:47.470Z,19008
2016-12-15T16:52:04.202Z,18432
2016-12-15T16:52:20.902Z,18080
2016-12-15T16:52:37.660Z,17824
2016-12-15T16:52:54.552Z,17504
2016-12-15T16:53:11.826Z,17312
2016-12-15T16:53:28.559Z,17100
2016-12-15T16:53:45.376Z,17280
2016-12-15T16:54:02.696Z,17440
2016-12-15T16:54:19.539Z,17440
2016-12-15T16:54:36.285Z,17148
2016-12-15T16:54:53.236Z,16912
2016-12-15T16:55:10.482Z,16700
2016-12-15T16:55:27.230Z,16684
2016-12-15T16:55:44.077Z,16600
2016-12-15T16:56:01.442Z,16180
2016-12-15T16:56:18.335Z,15500
2016-12-15T16:56:35.247Z,15024
2016-12-15T16:56:51.982Z,14996
2016-12-15T16:57:08.791Z,15552
2016-12-15T16:57:25.529Z,16168
2016-12-15T16:57:42.315Z,16204
2016-12-15T16:57:59.571Z,15836
2016-12-15T16:58:16.308Z,15476
2016-12-15T16:58:33.555Z,15160
2016-12-15T16:58:50.285Z,14900
2016-12-15T16:59:07.117Z,14684
2016-12-15T16:59:23.848Z,14476
2016-12-15T16:59:40.675Z,14296
2016-12-15T16:59:57.413Z,14252
2016-12-15T17:00:14.800Z,14424
2016-12-15T17:00:31.518Z,14764
2016-12-15T17:00:48.319Z,15088
2016-12-15T17:01:05.577Z,15248
2016-12-15T17:01:22.324Z,15140
2016-12-15T17:01:39.089Z,15132
2016-12-15T17:01:56.349Z,15332
2016-12-15T17:02:13.113Z,15312
2016-12-15T17:02:29.821Z,15300
2016-12-15T17:02:46.572Z,15864
2016-12-15T17:03:03.270Z,17032
2016-12-15T17:03:20.527Z,18528
2016-12-15T17:03:37.327Z,19392
2016-12-15T17:03:54.813Z,19488
2016-12-15T17:04:11.541Z,18944
2016-12-15T17:04:28.346Z,18112
2016-12-15T17:04:45.057Z,17408
2016-12-15T17:05:01.832Z,16600
2016-12-15T17:05:18.565Z,15872
2016-12-15T17:05:35.287Z,15076
2016-12-15T17:05:52.096Z,14460
2016-12-15T17:06:08.794Z,14232
2016-12-15T17:06:25.564Z,14296
2016-12-15T17:06:42.291Z,14568
2016-12-15T17:06:59.050Z,15072
2016-12-15T17:07:15.790Z,15744
2016-12-15T17:07:32.534Z,16464
2016-12-15T17:08:03.934Z,16540
2016-12-15T17:08:20.692Z,16308
2016-12-15T17:08:37.452Z,16632
2016-12-15T17:08:54.171Z,17920
2016-12-15T17:09:10.976Z,20000
2016-12-15T17:09:27.709Z,22368
2016-12-15T17:09:44.473Z,24160
2016-12-15T17:10:01.229Z,25024
2016-12-15T17:10:17.953Z,25312
2016-12-15T17:10:34.683Z,24800
2016-12-15T17:11:06.545Z,21472
2016-12-15T17:11:23.266Z,19520
2016-12-15T17:11:40.005Z,18016
2016-12-15T17:11:56.793Z,17056
2016-12-15T17:12:13.536Z,17568
2016-12-15T17:12:30.311Z,19232
2016-12-15T17:12:47.108Z,20896
2016-12-15T17:13:04.508Z,21792
2016-12-15T17:13:21.750Z,22144
2016-12-15T17:13:38.994Z,22496
2016-12-15T17:13:55.735Z,23552
2016-12-15T17:14:12.538Z,25376
2016-12-15T17:14:29.294Z,27232
2016-12-15T17:14:46.094Z,28032
2016-12-15T17:15:02.816Z,27616
2016-12-15T17:15:19.554Z,26144
2016-12-15T17:15:36.307Z,24256
2016-12-15T17:15:53.045Z,23552
2016-12-15T17:16:09.780Z,24512
2016-12-15T17:16:26.501Z,26688
2016-12-15T17:16:43.218Z,28992
2016-12-15T17:16:59.945Z,31200
2016-12-15T17:17:16.745Z,33728
2016-12-15T17:17:33.485Z,35840
2016-12-15T17:17:50.527Z,36576
2016-12-15T17:18:07.361Z,35616
2016-12-15T17:18:24.268Z,33216
2016-12-15T17:18:41.038Z,30688
2016-12-15T17:18:57.987Z,28320
2016-12-15T17:19:14.694Z,25984
2016-12-15T17:19:31.989Z,24096
2016-12-15T17:19:48.732Z,23040
2016-12-15T17:20:05.468Z,22496
2016-12-15T17:20:22.220Z,22528
2016-12-15T17:20:38.986Z,22656
2016-12-15T17:20:55.733Z,22144
2016-12-15T17:21:12.479Z,20992
2016-12-15T17:21:29.281Z,19680
2016-12-15T17:21:46.020Z,18528
2016-12-15T17:22:02.757Z,17696
2016-12-15T17:22:19.506Z,17312
2016-12-15T17:22:36.301Z,17012
2016-12-15T17:22:53.050Z,16764
2016-12-15T17:23:10.941Z,16576
2016-12-15T17:23:27.905Z,16576
2016-12-15T17:23:45.161Z,16552
2016-12-15T17:24:02.076Z,16644
2016-12-15T17:24:18.788Z,16920
2016-12-15T17:24:35.539Z,17080
2016-12-15T17:24:52.287Z,16984
2016-12-15T17:25:09.094Z,16660
2016-12-15T17:25:25.857Z,16264
2016-12-15T17:25:42.636Z,15860
2016-12-15T17:25:59.461Z,15420
2016-12-15T17:26:16.219Z,15008
2016-12-15T17:26:32.961Z,14852
2016-12-15T17:26:49.747Z,14880
2016-12-15T17:27:06.503Z,15044
2016-12-15T17:27:23.274Z,15208
2016-12-15T17:27:40.098Z,15208
2016-12-15T17:27:56.827Z,14968
2016-12-15T17:28:14.217Z,14504
2016-12-15T17:28:31.176Z,13992
2016-12-15T17:28:47.913Z,13528
2016-12-15T17:29:04.669Z,13164
2016-12-15T17:29:21.448Z,12940
2016-12-15T17:29:38.172Z,12972
2016-12-15T17:29:55.452Z,13168
2016-12-15T17:30:12.272Z,13392
2016-12-15T17:30:29.112Z,13700
2016-12-15T17:30:45.859Z,14128
2016-12-15T17:31:02.749Z,14728
2016-12-15T17:31:19.507Z,15496
2016-12-15T17:31:36.235Z,16032
2016-12-15T17:31:53.001Z,16248
2016-12-15T17:32:10.104Z,16720
2016-12-15T17:32:26.917Z,18016
2016-12-15T17:32:43.695Z,19520
2016-12-15T17:33:00.440Z,21024
2016-12-15T17:33:17.253Z,22656
2016-12-15T17:33:34.013Z,24512
2016-12-15T17:33:50.744Z,25920
2016-12-15T17:34:08.039Z,26336
2016-12-15T17:34:24.791Z,25856
2016-12-15T17:34:42.071Z,24992
2016-12-15T17:34:58.812Z,24768
2016-12-15T17:35:15.554Z,24992
2016-12-15T17:35:32.291Z,24672
2016-12-15T17:35:48.999Z,24448
2016-12-15T17:36:05.696Z,24320
2016-12-15T17:36:22.429Z,23776
2016-12-15T17:36:39.158Z,22336
2016-12-15T17:36:55.988Z,20704
2016-12-15T17:37:13.380Z,19584
2016-12-15T17:37:30.187Z,19680
2016-12-15T17:37:47.693Z,21088
2016-12-15T17:38:04.427Z,22688
2016-12-15T17:38:21.173Z,23424
2016-12-15T17:38:37.946Z,22976
2016-12-15T17:38:54.701Z,22304
2016-12-15T17:39:11.434Z,21824
2016-12-15T17:39:28.172Z,21152
2016-12-15T17:39:44.919Z,20064
2016-12-15T17:40:01.800Z,18880
2016-12-15T17:40:18.832Z,17920
2016-12-15T17:40:35.592Z,17344
2016-12-15T17:40:52.300Z,17004
2016-12-15T17:41:09.027Z,16740
2016-12-15T17:41:25.807Z,16220
2016-12-15T17:41:42.579Z,15432
2016-12-15T17:41:59.517Z,14736
2016-12-15T17:42:16.743Z,14368
2016-12-15T17:42:33.512Z,14296
2016-12-15T17:42:50.324Z,14312
2016-12-15T17:43:07.236Z,14188
2016-12-15T17:43:24.024Z,13960
2016-12-15T17:43:40.839Z,13788